Time;durP1;ratioP1;P1;durP2;ratioP2;P2;SDS_P1;SDS_P2;PMS_P1;PMS_P2;Temp;Humidity;BMP_temperature;BMP_pressure;BME280_temperature;BME280_humidity;BME280_pressure;Samples;Min_cycle;Max_cycle;Signal;HPM_P1;HPM_P2
2023/07/29 00:01:03;;;;;;;6.20;4.85;;;;;;;17.13;100.00;100566.72;5008706;28;20037;-60
2023/07/29 00:03:30;;;;;;;5.97;4.65;;;;;;;17.12;100.00;100558.88;5008657;28;20393;-60
2023/07/29 00:05:55;;;;;;;6.32;4.57;;;;;;;17.16;100.00;100550.16;5009088;28;20025;-60
2023/07/29 00:08:21;;;;;;;6.57;5.13;;;;;;;17.17;100.00;100546.66;5009077;28;20036;-60
2023/07/29 00:10:46;;;;;;;6.00;4.93;;;;;;;17.19;100.00;100550.16;5008830;28;20041;-60
2023/07/29 00:13:11;;;;;;;5.93;5.30;;;;;;;17.21;100.00;100550.16;5009011;28;20478;-60
2023/07/29 00:15:37;;;;;;;7.68;5.00;;;;;;;17.19;100.00;100550.16;5008401;28;20026;-61
2023/07/29 00:18:02;;;;;;;9.25;5.68;;;;;;;17.20;100.00;100551.88;5008971;28;20026;-60
2023/07/29 00:20:27;;;;;;;5.90;5.20;;;;;;;17.19;100.00;100547.53;5008772;28;20022;-59
2023/07/29 00:22:54;;;;;;;5.80;4.82;;;;;;;17.21;100.00;100555.38;5008781;28;20437;-60
2023/07/29 00:25:20;;;;;;;8.32;4.78;;;;;;;17.21;100.00;100553.66;5008245;28;20116;-60
2023/07/29 00:27:45;;;;;;;6.70;4.78;;;;;;;17.23;100.00;100545.78;5008589;28;20453;-59
2023/07/29 00:30:11;;;;;;;5.97;5.38;;;;;;;17.23;100.00;100545.78;5008772;28;20042;-59
2023/07/29 00:32:37;;;;;;;6.22;5.50;;;;;;;17.22;100.00;100550.16;5008419;28;20469;-60
2023/07/29 00:35:02;;;;;;;6.65;6.13;;;;;;;17.20;100.00;100551.88;5008621;28;20688;-60
2023/07/29 00:37:28;;;;;;;8.30;7.13;;;;;;;17.20;100.00;100544.03;5008680;28;20029;-60
2023/07/29 00:39:53;;;;;;;8.43;6.82;;;;;;;17.20;100.00;100541.41;5008189;28;20177;-61
2023/07/29 00:42:19;;;;;;;7.28;6.57;;;;;;;17.20;100.00;100541.41;5008459;28;20030;-60
2023/07/29 00:44:44;;;;;;;8.45;7.68;;;;;;;17.17;100.00;100536.19;5008272;28;20079;-59
2023/07/29 00:47:11;;;;;;;9.55;8.65;;;;;;;17.12;100.00;100533.59;5007836;28;20418;-60
2023/07/29 00:49:37;;;;;;;9.27;8.48;;;;;;;17.12;100.00;100535.31;5008519;28;20160;-60
2023/07/29 00:52:02;;;;;;;11.13;9.88;;;;;;;17.07;100.00;100529.19;5008522;28;20093;-60
2023/07/29 00:54:28;;;;;;;9.27;8.38;;;;;;;17.04;100.00;100525.69;5008382;28;20026;-60
2023/07/29 00:56:53;;;;;;;9.73;8.70;;;;;;;17.02;100.00;100522.19;5007789;28;20453;-60
2023/07/29 00:59:18;;;;;;;11.20;9.55;;;;;;;17.00;100.00;100518.69;5007707;28;20041;-60
2023/07/29 01:01:44;;;;;;;10.13;9.13;;;;;;;16.98;100.00;100520.44;5008054;28;20033;-60
2023/07/29 01:04:09;;;;;;;9.65;8.90;;;;;;;16.98;100.00;100519.59;5008456;28;20030;-60
2023/07/29 01:06:58;;;;;;;9.60;8.70;;;;;;;16.96;100.00;100516.09;5008123;28;20052;-60
2023/07/29 01:09:33;;;;;;;9.02;8.15;;;;;;;16.93;100.00;100520.44;5007508;28;20030;-60
2023/07/29 01:12:11;;;;;;;9.40;8.27;;;;;;;16.92;100.00;100520.47;5007892;28;20076;-60
2023/07/29 01:15:07;;;;;;;9.02;8.00;;;;;;;16.91;100.00;100521.31;5010354;28;20448;-60
2023/07/29 01:17:35;;;;;;;9.35;8.45;;;;;;;16.89;100.00;100521.31;5012279;28;20121;-61
2023/07/29 01:20:09;;;;;;;8.38;7.65;;;;;;;16.89;100.00;100525.69;5011517;28;20041;-61
2023/07/29 01:22:35;;;;;;;8.00;7.30;;;;;;;16.88;100.00;100519.59;5012430;28;20084;-60
2023/07/29 01:25:01;;;;;;;8.35;7.55;;;;;;;16.88;100.00;100518.69;5011786;28;20030;-60
2023/07/29 01:27:26;;;;;;;7.40;6.75;;;;;;;16.86;100.00;100521.31;5012241;28;20079;-60
2023/07/29 01:29:56;;;;;;;10.05;7.72;;;;;;;16.87;100.00;100530.06;5011816;28;20221;-60
2023/07/29 01:32:33;;;;;;;9.13;7.78;;;;;;;16.85;100.00;100524.81;5011437;28;20034;-60
2023/07/29 01:35:07;;;;;;;8.23;7.50;;;;;;;16.86;100.00;100529.16;5011174;28;20072;-60
2023/07/29 01:37:34;;;;;;;8.32;6.85;;;;;;;16.88;100.00;100529.16;5012140;28;20030;-60
2023/07/29 01:40:00;;;;;;;7.50;6.72;;;;;;;16.87;100.00;100527.44;5011637;28;20486;-60
2023/07/29 01:42:26;;;;;;;7.38;6.70;;;;;;;16.89;100.00;100530.94;5011055;28;20390;-60
2023/07/29 01:44:52;;;;;;;7.10;6.50;;;;;;;16.90;100.00;100532.66;5011509;28;20160;-60
2023/07/29 01:47:17;;;;;;;10.60;7.03;;;;;;;16.91;100.00;100540.50;5011428;28;20489;-60
2023/07/29 01:49:43;;;;;;;9.65;7.43;;;;;;;16.92;100.00;100537.03;5011372;28;20348;-60
2023/07/29 01:52:08;;;;;;;8.85;7.28;;;;;;;16.94;100.00;100539.66;5011209;28;20025;-60
2023/07/29 01:54:33;;;;;;;7.00;6.30;;;;;;;16.93;100.00;100533.53;5010987;28;20049;-60
2023/07/29 01:56:58;;;;;;;9.65;7.43;;;;;;;16.95;100.00;100536.16;5011091;28;20383;-60
2023/07/29 01:59:24;;;;;;;7.25;6.28;;;;;;;16.96;100.00;100543.16;5011232;28;20102;-59
2023/07/29 02:01:49;;;;;;;6.78;6.07;;;;;;;16.94;100.00;100539.66;5009436;28;20026;-60
2023/07/29 02:04:14;;;;;;;5.93;5.43;;;;;;;16.96;100.00;100545.75;5011240;28;20033;-61
2023/07/29 02:06:39;;;;;;;7.93;5.88;;;;;;;16.96;100.00;100537.91;5011299;28;20470;-60
2023/07/29 02:09:05;;;;;;;5.60;5.10;;;;;;;16.97;100.00;100537.03;5011151;28;20065;-60
2023/07/29 02:11:30;;;;;;;5.97;5.38;;;;;;;16.95;100.00;100543.13;5010739;28;20025;-60
2023/07/29 02:13:56;;;;;;;9.07;6.75;;;;;;;16.92;100.00;100533.53;5010902;28;20034;-60
2023/07/29 02:16:22;;;;;;;6.47;5.88;;;;;;;16.91;100.00;100535.28;5011249;28;20053;-61
2023/07/29 02:18:49;;;;;;;5.45;4.95;;;;;;;16.93;100.00;100533.53;5010564;28;20037;-59
2023/07/29 02:21:14;;;;;;;6.18;5.57;;;;;;;16.91;100.00;100526.53;5011038;28;20064;-61
2023/07/29 02:23:40;;;;;;;6.68;5.30;;;;;;;16.88;100.00;100526.53;5010897;28;20490;-61
2023/07/29 02:26:06;;;;;;;8.60;5.07;;;;;;;16.86;100.00;100525.66;5009701;28;20072;-61
2023/07/29 02:28:31;;;;;;;5.32;4.93;;;;;;;16.83;100.00;100521.31;5010926;28;20022;-60
2023/07/29 02:31:16;;;;;;;5.68;5.18;;;;;;;16.84;100.00;100527.44;5010866;28;20032;-60
2023/07/29 02:33:42;;;;;;;5.97;5.10;;;;;;;16.80;100.00;100522.19;5010482;28;20486;-61
2023/07/29 02:36:07;;;;;;;5.63;4.88;;;;;;;16.77;100.00;100522.19;5010634;28;20105;-60
2023/07/29 02:38:32;;;;;;;5.15;4.75;;;;;;;16.74;100.00;100522.19;5010707;28;20022;-60
2023/07/29 02:40:58;;;;;;;7.60;4.78;;;;;;;16.69;100.00;100513.47;5010500;28;20053;-59
2023/07/29 02:43:23;;;;;;;6.47;4.95;;;;;;;16.66;100.00;100523.91;5010230;28;20426;-60
2023/07/29 02:45:48;;;;;;;4.63;3.92;;;;;;;16.63;100.00;100513.44;5009911;28;20021;-60
2023/07/29 02:48:13;;;;;;;4.90;4.30;;;;;;;16.58;100.00;100515.19;5010463;28;20037;-60
2023/07/29 02:50:39;;;;;;;4.88;4.13;;;;;;;16.56;100.00;100518.69;5010446;28;20424;-60
2023/07/29 02:53:04;;;;;;;5.10;3.40;;;;;;;16.53;100.00;100516.03;5010076;28;20022;-60
2023/07/29 02:55:29;;;;;;;4.22;3.83;;;;;;;16.52;100.00;100516.91;5010331;28;20022;-60
2023/07/29 02:57:54;;;;;;;4.22;3.13;;;;;;;16.48;100.00;100509.91;5009739;28;20137;-60
2023/07/29 03:00:20;;;;;;;4.00;3.47;;;;;;;16.46;100.00;100511.66;5010394;28;20395;-60
2023/07/29 03:02:45;;;;;;;3.63;3.13;;;;;;;16.45;100.00;100520.38;5010624;28;20079;-60
2023/07/29 03:05:11;;;;;;;3.75;2.75;;;;;;;16.43;100.00;100506.44;5010266;28;20072;-60
2023/07/29 03:07:36;;;;;;;3.95;2.65;;;;;;;16.40;100.00;100506.44;5010302;28;20041;-60
2023/07/29 03:10:01;;;;;;;3.53;2.90;;;;;;;16.36;100.00;100510.78;5010071;28;20533;-61
2023/07/29 03:12:27;;;;;;;3.63;2.90;;;;;;;16.36;100.00;100509.91;5009841;28;20022;-60
2023/07/29 03:14:52;;;;;;;6.35;3.33;;;;;;;16.32;100.00;100506.41;5010094;28;20152;-60
2023/07/29 03:17:17;;;;;;;4.05;3.50;;;;;;;16.31;100.00;100500.31;5010112;28;20453;-60
2023/07/29 03:19:42;;;;;;;5.40;3.40;;;;;;;16.28;100.00;100502.91;5009757;28;20033;-60
2023/07/29 03:22:08;;;;;;;4.50;4.07;;;;;;;16.27;100.00;100513.34;5009678;28;20033;-61
2023/07/29 03:24:33;;;;;;;5.38;3.90;;;;;;;16.23;100.00;100515.09;5009532;28;20033;-60
2023/07/29 03:26:58;;;;;;;4.20;3.80;;;;;;;16.24;100.00;100515.97;5009771;28;20428;-59
2023/07/29 03:29:23;;;;;;;5.45;4.53;;;;;;;16.24;100.00;100527.31;5009819;28;20041;-59
2023/07/29 03:31:49;;;;;;;4.30;3.85;;;;;;;16.22;100.00;100518.59;5010093;28;20026;-60
2023/07/29 03:34:14;;;;;;;5.72;3.97;;;;;;;16.22;100.00;100526.44;5009487;28;20022;-60
2023/07/29 03:36:40;;;;;;;3.90;3.22;;;;;;;16.23;100.00;100520.31;5009371;28;20022;-61
2023/07/29 03:39:05;;;;;;;4.63;4.10;;;;;;;16.21;100.00;100514.19;5009648;28;20453;-60
2023/07/29 03:41:31;;;;;;;5.38;4.30;;;;;;;16.21;100.00;100524.66;5009423;28;20029;-61
2023/07/29 03:43:56;;;;;;;3.80;3.50;;;;;;;16.21;100.00;100532.50;5009225;28;20026;-60
2023/07/29 03:46:22;;;;;;;3.92;3.53;;;;;;;16.22;100.00;100522.94;5009159;28;20036;-60
2023/07/29 03:48:47;;;;;;;5.80;4.30;;;;;;;16.20;100.00;100525.53;5009257;28;20619;-60
2023/07/29 03:51:13;;;;;;;3.92;3.60;;;;;;;16.17;100.00;100522.91;5009332;28;20026;-60
2023/07/29 03:53:38;;;;;;;5.22;3.80;;;;;;;16.15;100.00;100527.25;5008293;28;20033;-60
2023/07/29 03:56:04;;;;;;;5.90;4.05;;;;;;;16.10;100.00;100526.38;5007324;28;20044;-61
2023/07/29 03:58:29;;;;;;;5.93;3.83;;;;;;;16.05;100.00;100511.53;5007625;28;20029;-60
2023/07/29 04:00:54;;;;;;;6.22;4.28;;;;;;;16.02;100.00;100501.09;5007856;28;20030;-60
2023/07/29 04:03:19;;;;;;;4.78;4.30;;;;;;;15.95;100.00;100491.44;5007883;28;20025;-61
2023/07/29 04:05:45;;;;;;;6.50;4.10;;;;;;;15.89;100.00;100474.00;5006105;28;20560;-60
2023/07/29 04:08:10;;;;;;;5.13;4.35;;;;;;;15.87;100.00;100480.06;5006559;28;20069;-60
2023/07/29 04:10:36;;;;;;;6.82;4.70;;;;;;;15.80;100.00;100485.28;5006710;28;20407;-60
2023/07/29 04:13:01;;;;;;;5.85;4.30;;;;;;;15.75;100.00;100481.78;5007056;28;20029;-60
2023/07/29 04:15:26;;;;;;;4.63;3.80;;;;;;;15.72;100.00;100476.53;5007588;28;20029;-60
2023/07/29 04:17:52;;;;;;;4.50;4.10;;;;;;;15.72;100.00;100468.72;5008648;28;20036;-60
2023/07/29 04:20:17;;;;;;;5.13;4.47;;;;;;;15.72;100.00;100476.53;5008861;28;20458;-60
2023/07/29 04:22:42;;;;;;;5.47;4.95;;;;;;;15.70;100.00;100486.97;5008980;28;20076;-60
2023/07/29 04:25:08;;;;;;;5.10;4.03;;;;;;;15.73;100.00;100500.06;5008782;28;20033;-60
2023/07/29 04:27:33;;;;;;;4.70;4.25;;;;;;;15.71;100.00;100516.56;5008925;28;20153;-60
2023/07/29 04:29:58;;;;;;;6.65;4.72;;;;;;;15.67;100.00;100527.88;5008478;28;20038;-60
2023/07/29 04:32:24;;;;;;;4.97;4.47;;;;;;;15.68;100.00;100527.00;5008416;28;20470;-61
2023/07/29 04:34:49;;;;;;;5.32;4.13;;;;;;;15.71;100.00;100529.63;5008746;28;20022;-60
2023/07/29 04:37:14;;;;;;;6.10;4.55;;;;;;;15.74;100.00;100521.81;5007503;28;20508;-60
2023/07/29 04:39:39;;;;;;;4.60;3.72;;;;;;;15.74;100.00;100521.81;5008991;28;20018;-61
2023/07/29 04:42:05;;;;;;;5.07;3.97;;;;;;;15.77;100.00;100523.56;5008128;28;20018;-60
2023/07/29 04:44:30;;;;;;;4.45;3.47;;;;;;;15.83;100.00;100529.69;5008592;28;20355;-61
2023/07/29 04:46:55;;;;;;;3.92;3.53;;;;;;;15.85;100.00;100534.94;5008322;28;20025;-60
2023/07/29 04:49:21;;;;;;;5.25;3.92;;;;;;;15.89;100.00;100535.81;5007938;28;20029;-60
2023/07/29 04:51:46;;;;;;;4.13;3.72;;;;;;;15.87;100.00;100538.44;5008551;28;20036;-61
2023/07/29 04:54:11;;;;;;;3.33;3.03;;;;;;;15.91;100.00;100531.47;5007938;28;20033;-60
2023/07/29 04:56:36;;;;;;;5.18;3.42;;;;;;;15.94;100.00;100534.09;5007942;28;20505;-60
2023/07/29 04:59:02;;;;;;;6.00;3.90;;;;;;;15.94;100.00;100534.97;5008291;28;20044;-60
2023/07/29 05:01:27;;;;;;;4.55;3.10;;;;;;;15.95;100.00;100536.75;5008459;28;20029;-60
2023/07/29 05:03:52;;;;;;;3.28;2.97;;;;;;;15.95;100.00;100535.84;5007820;28;20056;-60
2023/07/29 05:06:18;;;;;;;3.97;3.05;;;;;;;15.95;100.00;100534.13;5008242;28;20030;-60
2023/07/29 05:08:43;;;;;;;3.10;2.80;;;;;;;15.96;100.00;100537.59;5008424;28;20022;-60
2023/07/29 05:11:08;;;;;;;4.28;3.00;;;;;;;15.99;100.00;100542.84;5008828;28;20544;-60
2023/07/29 05:13:33;;;;;;;3.17;2.88;;;;;;;16.02;100.00;100552.47;5007994;28;20551;-60
2023/07/29 05:15:59;;;;;;;3.78;2.67;;;;;;;16.04;100.00;100556.84;5008170;28;20024;-60
2023/07/29 05:18:24;;;;;;;3.15;2.85;;;;;;;16.03;100.00;100565.53;5008429;28;20462;-60
2023/07/29 05:20:49;;;;;;;2.92;2.42;;;;;;;16.02;100.00;100566.41;5008266;28;20018;-60
2023/07/29 05:23:15;;;;;;;4.45;2.40;;;;;;;16.06;100.00;100565.53;5007617;28;20041;-60
2023/07/29 05:25:40;;;;;;;3.58;2.50;;;;;;;16.08;100.00;100561.19;5008247;28;20569;-61
2023/07/29 05:28:05;;;;;;;2.92;2.53;;;;;;;16.13;100.00;100557.75;5008418;28;20351;-60
2023/07/29 05:30:33;;;;;;;4.38;2.70;;;;;;;16.15;100.00;100554.28;5008245;28;20061;-60
2023/07/29 05:32:59;;;;;;;4.18;2.95;;;;;;;16.14;100.00;100557.75;5008103;28;20076;-60
2023/07/29 05:35:24;;;;;;;3.88;2.50;;;;;;;16.18;100.00;100556.03;5007932;28;20533;-60
2023/07/29 05:37:50;;;;;;;3.25;2.38;;;;;;;16.18;100.00;100551.69;5008107;28;20056;-61
2023/07/29 05:40:15;;;;;;;4.03;2.28;;;;;;;16.20;100.00;100549.06;5007852;28;20381;-60
2023/07/29 05:42:40;;;;;;;3.83;2.60;;;;;;;16.19;100.00;100556.03;5007776;28;20112;-61
2023/07/29 05:45:07;;;;;;;3.63;2.30;;;;;;;16.23;100.00;100564.75;5007927;28;20042;-60
2023/07/29 05:47:32;;;;;;;3.40;2.72;;;;;;;16.24;100.00;100558.69;5007714;28;20327;-59
2023/07/29 05:49:57;;;;;;;2.75;2.50;;;;;;;16.22;100.00;100552.56;5008038;28;20127;-60
2023/07/29 05:52:23;;;;;;;3.53;2.45;;;;;;;16.27;100.00;100550.84;5007519;28;20030;-61
2023/07/29 05:54:48;;;;;;;4.30;2.40;;;;;;;16.40;100.00;100558.72;5007856;28;20022;-60
2023/07/29 05:57:13;;;;;;;4.63;3.10;;;;;;;16.51;100.00;100561.38;5007414;28;20058;-60
2023/07/29 05:59:39;;;;;;;6.03;3.15;;;;;;;16.66;100.00;100560.53;5008382;28;20413;-60
2023/07/29 06:02:04;;;;;;;3.97;3.15;;;;;;;16.79;100.00;100562.31;5010989;28;20561;-61
2023/07/29 06:04:30;;;;;;;3.22;2.92;;;;;;;16.90;100.00;100564.94;5011382;28;20037;-59
2023/07/29 06:06:55;;;;;;;3.35;2.53;;;;;;;16.99;100.00;100557.97;5011486;28;20036;-60
2023/07/29 06:09:21;;;;;;;2.58;2.38;;;;;;;17.14;100.00;100559.75;5011356;28;20037;-60
2023/07/29 06:11:47;;;;;;;2.72;2.10;;;;;;;17.26;100.00;100559.75;5011050;28;20545;-60
2023/07/29 06:14:12;;;;;;;2.83;2.15;;;;;;;17.38;100.00;100560.59;5011036;28;20040;-60
2023/07/29 06:16:37;;;;;;;1.98;1.75;;;;;;;17.44;100.00;100550.13;5011412;28;20108;-60
2023/07/29 06:19:03;;;;;;;2.30;2.03;;;;;;;17.50;100.00;100560.59;5010781;28;20026;-61
2023/07/29 06:21:28;;;;;;;2.58;2.25;;;;;;;17.61;100.00;100557.97;5010591;28;20109;-61
2023/07/29 06:23:53;;;;;;;4.93;2.38;;;;;;;17.73;100.00;100556.19;5010831;28;20490;-59
2023/07/29 06:26:18;;;;;;;2.83;2.00;;;;;;;17.85;100.00;100560.53;5010220;28;20045;-60
2023/07/29 06:28:44;;;;;;;4.53;2.28;;;;;;;17.98;100.00;100554.38;5011161;28;20161;-60
2023/07/29 06:31:09;;;;;;;3.35;2.47;;;;;;;17.96;100.00;100553.53;5010640;28;20030;-60
2023/07/29 06:33:34;;;;;;;3.33;2.00;;;;;;;17.99;100.00;100555.25;5010672;28;20033;-60
2023/07/29 06:35:59;;;;;;;2.72;2.25;;;;;;;17.96;100.00;100552.63;5010655;28;20028;-60
2023/07/29 06:38:25;;;;;;;2.55;2.35;;;;;;;17.96;100.00;100556.13;5010444;28;20490;-60
2023/07/29 06:40:50;;;;;;;2.80;2.20;;;;;;;18.03;100.00;100563.97;5010154;28;20037;-60
2023/07/29 06:43:16;;;;;;;3.88;2.22;;;;;;;18.12;100.00;100558.69;5010765;28;20018;-60
2023/07/29 06:45:42;;;;;;;3.20;1.92;;;;;;;18.29;100.00;100560.41;5010248;28;20281;-59
2023/07/29 06:48:07;;;;;;;3.95;2.25;;;;;;;18.51;100.00;100560.31;5010526;28;20042;-61
2023/07/29 06:50:32;;;;;;;2.80;2.40;;;;;;;18.68;100.00;100562.81;5009922;28;20137;-60
2023/07/29 06:52:58;;;;;;;2.35;2.15;;;;;;;18.78;100.00;100563.66;5010757;28;20516;-60
2023/07/29 06:55:23;;;;;;;2.72;1.83;;;;;;;18.95;100.00;100576.66;5010399;28;20359;-60
2023/07/29 06:57:48;;;;;;;3.15;2.13;;;;;;;19.11;100.00;100582.66;5010210;28;20066;-60
2023/07/29 07:00:14;;;;;;;2.83;2.13;;;;;;;19.23;100.00;100586.09;5009752;28;20029;-60
2023/07/29 07:02:39;;;;;;;2.85;1.77;;;;;;;19.39;100.00;100587.69;5010298;28;20463;-60
2023/07/29 07:05:04;;;;;;;2.08;1.85;;;;;;;19.42;100.00;100589.44;5010026;28;20065;-60
2023/07/29 07:07:30;;;;;;;2.33;1.88;;;;;;;19.27;100.00;100587.81;5009653;28;20032;-60
2023/07/29 07:09:56;;;;;;;2.47;2.08;;;;;;;19.39;100.00;100582.44;5010455;28;20022;-60
2023/07/29 07:12:21;;;;;;;2.92;2.00;;;;;;;19.49;100.00;100588.50;5009699;28;20079;-61
2023/07/29 07:14:47;;;;;;;1.70;1.17;;;;;;;19.54;100.00;100591.06;5009866;28;20026;-60
2023/07/29 07:17:12;;;;;;;2.97;1.50;;;;;;;19.41;100.00;100585.94;5010006;28;20033;-60
2023/07/29 07:19:37;;;;;;;3.10;1.95;;;;;;;19.34;100.00;100589.50;5009748;28;20022;-60
2023/07/29 07:22:03;;;;;;;2.40;1.27;;;;;;;19.17;100.00;100593.16;5009815;28;20522;-60
2023/07/29 07:24:29;;;;;;;2.13;1.42;;;;;;;19.04;100.00;100594.97;5009836;28;20025;-61
2023/07/29 07:26:54;;;;;;;2.88;1.77;;;;;;;18.97;100.00;100595.88;5009968;28;20054;-60
2023/07/29 07:29:19;;;;;;;1.80;1.70;;;;;;;18.92;100.00;100595.94;5009716;28;20034;-61
2023/07/29 07:31:53;;;;;;;3.88;1.70;;;;;;;18.91;100.00;100594.16;5009730;28;20026;-61
2023/07/29 07:34:20;;;;;;;2.45;1.95;;;;;;;18.95;100.00;100601.16;5009816;28;20036;-60
2023/07/29 07:36:46;;;;;;;3.28;2.33;;;;;;;18.99;100.00;100602.00;5009096;28;20059;-60
2023/07/29 07:39:11;;;;;;;3.13;2.58;;;;;;;18.80;100.00;100609.09;5009637;28;20061;-60
2023/07/29 07:41:37;;;;;;;2.90;1.92;;;;;;;18.88;100.00;100602.06;5009553;28;20022;-60
2023/07/29 07:44:02;;;;;;;2.22;1.75;;;;;;;18.80;100.00;100619.59;5009344;28;20520;-60
2023/07/29 07:46:28;;;;;;;2.13;1.92;;;;;;;18.82;100.00;100608.22;5009259;28;20033;-60
2023/07/29 07:48:54;;;;;;;2.42;1.75;;;;;;;18.89;100.00;100613.44;5009454;28;20125;-60
2023/07/29 07:51:19;;;;;;;2.28;1.98;;;;;;;18.92;100.00;100609.06;5009832;28;20100;-61
2023/07/29 07:53:44;;;;;;;2.92;2.22;;;;;;;18.98;100.00;100607.25;5009615;28;20521;-60
2023/07/29 07:56:10;;;;;;;2.53;1.92;;;;;;;19.11;100.00;100611.53;5008439;28;20096;-61
2023/07/29 07:58:35;;;;;;;2.85;2.25;;;;;;;19.22;100.00;100615.88;5009397;28;20242;-60
2023/07/29 08:01:02;;;;;;;3.45;1.60;;;;;;;19.38;100.00;100612.25;5009108;28;20113;-60
2023/07/29 08:03:27;;;;;;;2.75;1.45;;;;;;;19.61;100.00;100613.78;5009131;28;20057;-60
2023/07/29 08:05:52;;;;;;;2.72;1.40;;;;;;;19.86;100.00;100605.66;5008393;28;20197;-60
2023/07/29 08:08:17;;;;;;;2.88;1.30;;;;;;;19.99;100.00;100602.88;5009249;28;20037;-60
2023/07/29 08:10:43;;;;;;;3.03;1.65;;;;;;;20.01;100.00;100601.13;5009243;28;20083;-60
2023/07/29 08:13:08;;;;;;;1.63;1.50;;;;;;;20.00;100.00;100599.38;5008915;28;20052;-60
2023/07/29 08:15:33;;;;;;;2.90;1.50;;;;;;;20.03;100.00;100601.97;5009017;28;20045;-61
2023/07/29 08:17:59;;;;;;;2.25;1.65;;;;;;;20.08;100.00;100607.19;5008442;28;20021;-60
2023/07/29 08:20:25;;;;;;;1.30;1.20;;;;;;;20.24;100.00;100621.03;5008747;28;20064;-61
2023/07/29 08:22:50;;;;;;;1.83;1.40;;;;;;;20.29;100.00;100611.38;5008599;28;20022;-61
2023/07/29 08:25:15;;;;;;;1.50;1.10;;;;;;;20.20;100.00;100616.72;5008160;28;20029;-60
2023/07/29 08:27:40;;;;;;;2.92;1.40;;;;;;;20.11;100.00;100618.56;5008567;28;20048;-61
2023/07/29 08:30:07;;;;;;;1.30;1.10;;;;;;;20.00;100.00;100623.06;5008108;28;20037;-60
2023/07/29 08:32:32;;;;;;;1.15;1.05;;;;;;;19.89;100.00;100634.56;5008414;28;20060;-61
2023/07/29 08:34:57;;;;;;;1.73;1.10;;;;;;;19.84;100.00;100615.31;5008759;28;20025;-60
2023/07/29 08:37:23;;;;;;;1.15;1.02;;;;;;;19.79;100.00;100618.00;5008047;28;20032;-60
2023/07/29 08:39:48;;;;;;;4.20;1.10;;;;;;;19.75;100.00;100612.78;5008862;28;20091;-61
2023/07/29 08:42:18;;;;;;;1.55;0.93;;;;;;;19.70;100.00;100622.47;5008544;28;20466;-60
2023/07/29 08:44:45;;;;;;;2.10;1.08;;;;;;;19.68;100.00;100620.72;5008440;28;20049;-60
2023/07/29 08:47:13;;;;;;;0.70;0.70;;;;;;;19.64;100.00;100621.66;5008044;28;20188;-60
2023/07/29 08:49:39;;;;;;;2.10;1.33;;;;;;;19.65;100.00;100612.00;5008701;28;20093;-60
2023/07/29 08:52:05;;;;;;;2.70;1.20;;;;;;;19.60;100.00;100601.53;5008198;28;20034;-61
2023/07/29 08:54:30;;;;;;;1.20;1.10;;;;;;;19.84;100.00;100604.78;5008402;28;20029;-61
2023/07/29 08:56:56;;;;;;;4.53;1.65;;;;;;;20.11;100.00;100612.44;5007709;28;20100;-59
2023/07/29 08:59:22;;;;;;;1.10;1.00;;;;;;;20.34;100.00;100608.66;5008174;28;20034;-61
2023/07/29 09:01:48;;;;;;;2.40;1.00;;;;;;;20.50;100.00;100607.59;5008375;28;20033;-61
2023/07/29 09:04:13;;;;;;;1.42;1.05;;;;;;;20.66;100.00;100609.13;5008454;28;20026;-61
2023/07/29 09:06:39;;;;;;;1.52;1.02;;;;;;;20.76;100.00;100605.47;5008752;28;20033;-61
2023/07/29 09:09:06;;;;;;;2.40;1.30;;;;;;;20.57;100.00;100611.00;5008276;28;20029;-61
2023/07/29 09:11:32;;;;;;;1.35;0.88;;;;;;;20.54;100.00;100611.03;5007468;28;20493;-60
2023/07/29 09:13:58;;;;;;;1.67;0.95;;;;;;;20.47;100.00;100609.38;5008419;28;20115;-60
2023/07/29 09:16:24;;;;;;;2.88;1.38;;;;;;;20.52;100.00;100611.03;5008286;28;20062;-59
2023/07/29 09:18:51;;;;;;;2.08;1.00;;;;;;;20.60;100.00;100604.81;5008203;28;20462;-61
2023/07/29 09:21:24;;;;;;;1.45;0.90;;;;;;;20.69;100.00;100603.81;5008175;28;20033;-60
2023/07/29 09:23:50;;;;;;;1.92;1.02;;;;;;;20.84;100.00;100600.97;5007721;28;20034;-60
2023/07/29 09:26:25;;;;;;;2.45;0.98;;;;;;;21.06;100.00;100603.31;5008175;28;20022;-60
2023/07/29 09:28:55;;;;;;;1.35;0.90;;;;;;;21.32;100.00;100599.38;5007975;28;20772;-60
2023/07/29 09:31:22;;;;;;;1.02;0.90;;;;;;;21.65;100.00;100597.94;5007827;28;20032;-60
2023/07/29 09:33:48;;;;;;;1.23;0.90;;;;;;;21.91;100.00;100594.00;5008078;28;20057;-60
2023/07/29 09:36:13;;;;;;;2.70;1.13;;;;;;;22.01;100.00;100600.81;5010478;28;20022;-60
2023/07/29 09:38:39;;;;;;;0.98;0.85;;;;;;;22.25;100.00;100597.72;5011963;28;20030;-60
2023/07/29 09:41:04;;;;;;;0.88;0.88;;;;;;;22.29;100.00;100594.97;5011787;28;20058;-61
2023/07/29 09:43:31;;;;;;;1.10;0.82;;;;;;;22.41;99.08;100587.69;5011803;28;20030;-61
2023/07/29 09:46:04;;;;;;;0.98;0.90;;;;;;;22.35;96.46;100590.44;5011659;28;20517;-60
2023/07/29 09:48:37;;;;;;;2.13;1.10;;;;;;;22.28;93.72;100590.59;5011718;28;20480;-60
2023/07/29 09:51:13;;;;;;;1.40;0.90;;;;;;;21.95;97.02;100609.72;5011136;28;20034;-61
2023/07/29 09:53:46;;;;;;;1.63;0.93;;;;;;;21.89;98.28;100609.81;5011772;28;20065;-60
2023/07/29 09:56:12;;;;;;;1.05;0.98;;;;;;;21.79;98.41;100605.59;5011279;28;20418;-60
2023/07/29 09:58:38;;;;;;;1.85;1.10;;;;;;;21.70;100.00;100614.53;5011365;28;20029;-60
2023/07/29 10:01:06;;;;;;;1.98;0.85;;;;;;;21.55;100.00;100600.72;5011249;28;20032;-60
2023/07/29 10:03:33;;;;;;;1.88;1.08;;;;;;;21.39;100.00;100609.81;5011598;28;20060;-60
2023/07/29 10:06:02;;;;;;;1.88;1.13;;;;;;;21.15;100.00;100610.19;5011479;28;20034;-60
2023/07/29 10:08:31;;;;;;;1.08;0.98;;;;;;;21.03;100.00;100603.34;5011851;28;20026;-60
2023/07/29 10:10:59;;;;;;;1.42;1.30;;;;;;;20.88;100.00;100609.69;5011113;28;20536;-59
2023/07/29 10:13:26;;;;;;;1.35;1.08;;;;;;;20.81;100.00;100608.03;5010974;28;20034;-60
2023/07/29 10:15:53;;;;;;;1.38;1.15;;;;;;;20.91;100.00;100606.13;5011240;28;20033;-60
2023/07/29 10:18:18;;;;;;;1.25;1.10;;;;;;;21.07;100.00;100594.50;5010993;28;20466;-60
2023/07/29 10:20:44;;;;;;;2.13;1.15;;;;;;;21.29;100.00;100594.16;5010881;28;20041;-60
2023/07/29 10:23:11;;;;;;;2.15;1.20;;;;;;;21.46;100.00;100603.56;5011171;28;20482;-60
2023/07/29 10:25:46;;;;;;;2.92;1.30;;;;;;;21.56;100.00;100602.50;5010810;28;20115;-60
2023/07/29 10:28:15;;;;;;;2.33;1.30;;;;;;;21.69;100.00;100591.72;5011082;28;20108;-61
2023/07/29 10:30:41;;;;;;;1.30;1.20;;;;;;;21.86;100.00;100593.22;5011044;28;20118;-60
2023/07/29 10:33:07;;;;;;;1.83;1.00;;;;;;;22.07;100.00;100587.47;5010503;28;20152;-60
2023/07/29 10:35:33;;;;;;;1.65;1.10;;;;;;;22.40;100.00;100593.84;5010572;28;20034;-60
2023/07/29 10:37:59;;;;;;;1.38;1.10;;;;;;;22.68;98.66;100593.31;5010540;28;20034;-60
2023/07/29 10:40:24;;;;;;;1.45;1.05;;;;;;;22.81;93.24;100587.72;5010888;28;20026;-60
2023/07/29 10:43:08;;;;;;;1.00;0.98;;;;;;;23.22;96.74;100582.34;5010562;28;20029;-61
2023/07/29 10:45:38;;;;;;;1.63;0.80;;;;;;;23.27;91.65;100583.97;5010572;28;20061;-61
2023/07/29 10:48:10;;;;;;;1.48;1.38;;;;;;;23.43;90.13;100578.31;5009500;28;20478;-61
2023/07/29 10:50:36;;;;;;;1.35;1.10;;;;;;;23.54;90.39;100571.88;5010568;28;20481;-61
2023/07/29 10:53:01;;;;;;;1.98;1.10;;;;;;;23.55;88.25;100581.56;5010872;28;20033;-62
2023/07/29 10:55:33;;;;;;;1.85;1.45;;;;;;;23.39;88.08;100579.25;5010376;28;20241;-61
2023/07/29 10:58:07;;;;;;;2.30;1.10;;;;;;;23.12;88.47;100571.13;5010283;28;20140;-60
2023/07/29 11:00:33;;;;;;;2.05;1.20;;;;;;;22.75;90.66;100572.91;5010541;28;20029;-61
2023/07/29 11:03:02;;;;;;;1.52;1.20;;;;;;;22.34;91.73;100578.19;5010524;28;20041;-60
2023/07/29 11:05:42;;;;;;;1.20;1.10;;;;;;;22.20;95.04;100571.41;5010830;28;20135;-60
2023/07/29 11:08:17;;;;;;;1.20;1.10;;;;;;;22.15;95.24;100576.78;5010416;28;20049;-60
2023/07/29 11:10:44;;;;;;;1.52;1.40;;;;;;;22.14;96.60;100577.69;5009461;28;20049;-60
2023/07/29 11:13:11;;;;;;;1.45;1.20;;;;;;;22.14;98.57;100582.09;5010273;28;20025;-60